sensor_id;sensor_type;location;lat;lon;timestamp;P1;durP1;ratioP1;P2;durP2;ratioP2
10957;SDS011;5531;42.570;23.676;2022-12-18T00:00:27;162.73;;;20.85;;
10957;SDS011;5531;42.570;23.676;2022-12-18T00:02:56;267.83;;;24.33;;
10957;SDS011;5531;42.570;23.676;2022-12-18T00:05:25;25.55;;;14.68;;
10957;SDS011;5531;42.570;23.676;2022-12-18T00:07:54;14.35;;;12.63;;
10957;SDS011;5531;42.570;23.676;2022-12-18T00:10:23;13.32;;;11.77;;
10957;SDS011;5531;42.570;23.676;2022-12-18T00:12:52;15.30;;;11.32;;
10957;SDS011;5531;42.570;23.676;2022-12-18T00:15:21;16.13;;;13.63;;
10957;SDS011;5531;42.570;23.676;2022-12-18T00:17:52;16.23;;;11.77;;
10957;SDS011;5531;42.570;23.676;2022-12-18T00:20:21;14.93;;;13.32;;
10957;SDS011;5531;42.570;23.676;2022-12-18T00:22:51;22.75;;;20.38;;
10957;SDS011;5531;42.570;23.676;2022-12-18T00:25:20;17.77;;;14.48;;
10957;SDS011;5531;42.570;23.676;2022-12-18T00:27:49;36.28;;;15.45;;
10957;SDS011;5531;42.570;23.676;2022-12-18T00:30:18;17.48;;;15.63;;
10957;SDS011;5531;42.570;23.676;2022-12-18T00:32:47;14.63;;;13.05;;
10957;SDS011;5531;42.570;23.676;2022-12-18T00:35:19;12.05;;;10.70;;
10957;SDS011;5531;42.570;23.676;2022-12-18T00:37:48;13.82;;;11.52;;
10957;SDS011;5531;42.570;23.676;2022-12-18T00:40:17;19.35;;;12.27;;
10957;SDS011;5531;42.570;23.676;2022-12-18T00:42:46;21.35;;;12.82;;
10957;SDS011;5531;42.570;23.676;2022-12-18T00:45:21;106.85;;;19.83;;
10957;SDS011;5531;42.570;23.676;2022-12-18T00:47:51;16.80;;;14.82;;
10957;SDS011;5531;42.570;23.676;2022-12-18T00:50:23;14.82;;;12.40;;
10957;SDS011;5531;42.570;23.676;2022-12-18T00:52:52;19.33;;;12.95;;
10957;SDS011;5531;42.570;23.676;2022-12-18T00:55:21;13.60;;;12.20;;
10957;SDS011;5531;42.570;23.676;2022-12-18T00:57:50;12.50;;;11.15;;
10957;SDS011;5531;42.570;23.676;2022-12-18T01:00:20;12.38;;;10.68;;
10957;SDS011;5531;42.570;23.676;2022-12-18T01:02:49;11.07;;;9.60;;
10957;SDS011;5531;42.570;23.676;2022-12-18T01:05:21;13.05;;;10.32;;
10957;SDS011;5531;42.570;23.676;2022-12-18T01:07:51;12.07;;;10.23;;
10957;SDS011;5531;42.570;23.676;2022-12-18T01:10:20;11.80;;;10.50;;
10957;SDS011;5531;42.570;23.676;2022-12-18T01:12:49;13.68;;;10.45;;
10957;SDS011;5531;42.570;23.676;2022-12-18T01:15:18;11.48;;;9.48;;
10957;SDS011;5531;42.570;23.676;2022-12-18T01:17:47;12.70;;;10.77;;
10957;SDS011;5531;42.570;23.676;2022-12-18T01:20:16;16.85;;;14.43;;
10957;SDS011;5531;42.570;23.676;2022-12-18T01:22:48;14.63;;;13.23;;
10957;SDS011;5531;42.570;23.676;2022-12-18T01:25:17;13.07;;;10.27;;
10957;SDS011;5531;42.570;23.676;2022-12-18T01:27:46;13.55;;;11.13;;
10957;SDS011;5531;42.570;23.676;2022-12-18T01:30:15;16.23;;;14.65;;
10957;SDS011;5531;42.570;23.676;2022-12-18T01:32:45;10.85;;;9.65;;
10957;SDS011;5531;42.570;23.676;2022-12-18T01:35:14;10.90;;;9.10;;
10957;SDS011;5531;42.570;23.676;2022-12-18T01:37:43;11.48;;;9.20;;
10957;SDS011;5531;42.570;23.676;2022-12-18T01:40:14;11.10;;;9.02;;
10957;SDS011;5531;42.570;23.676;2022-12-18T01:42:43;11.60;;;10.40;;
10957;SDS011;5531;42.570;23.676;2022-12-18T01:45:22;10.38;;;9.15;;
10957;SDS011;5531;42.570;23.676;2022-12-18T01:47:54;13.65;;;11.18;;
10957;SDS011;5531;42.570;23.676;2022-12-18T01:50:28;13.13;;;11.80;;
10957;SDS011;5531;42.570;23.676;2022-12-18T01:53:02;12.40;;;10.57;;
10957;SDS011;5531;42.570;23.676;2022-12-18T01:55:38;11.90;;;10.13;;
10957;SDS011;5531;42.570;23.676;2022-12-18T01:58:11;13.10;;;11.75;;
10957;SDS011;5531;42.570;23.676;2022-12-18T02:00:40;9.30;;;8.18;;
10957;SDS011;5531;42.570;23.676;2022-12-18T02:03:09;11.05;;;9.15;;
10957;SDS011;5531;42.570;23.676;2022-12-18T02:05:40;9.45;;;8.50;;
10957;SDS011;5531;42.570;23.676;2022-12-18T02:08:15;12.02;;;9.80;;
10957;SDS011;5531;42.570;23.676;2022-12-18T02:11:00;9.68;;;7.85;;
10957;SDS011;5531;42.570;23.676;2022-12-18T02:13:37;8.68;;;7.78;;
10957;SDS011;5531;42.570;23.676;2022-12-18T02:16:14;10.35;;;8.50;;
10957;SDS011;5531;42.570;23.676;2022-12-18T02:18:50;11.07;;;9.90;;
10957;SDS011;5531;42.570;23.676;2022-12-18T02:21:26;10.93;;;9.82;;
10957;SDS011;5531;42.570;23.676;2022-12-18T02:24:06;12.60;;;11.38;;
10957;SDS011;5531;42.570;23.676;2022-12-18T02:26:48;8.77;;;7.88;;
10957;SDS011;5531;42.570;23.676;2022-12-18T02:29:20;10.55;;;9.45;;
10957;SDS011;5531;42.570;23.676;2022-12-18T02:31:53;9.38;;;8.38;;
10957;SDS011;5531;42.570;23.676;2022-12-18T02:34:25;11.23;;;10.13;;
10957;SDS011;5531;42.570;23.676;2022-12-18T02:36:57;8.93;;;7.30;;
10957;SDS011;5531;42.570;23.676;2022-12-18T02:39:32;9.82;;;7.65;;
10957;SDS011;5531;42.570;23.676;2022-12-18T02:42:05;9.10;;;8.07;;
10957;SDS011;5531;42.570;23.676;2022-12-18T02:44:35;9.50;;;8.45;;
10957;SDS011;5531;42.570;23.676;2022-12-18T02:47:12;17.70;;;16.08;;
10957;SDS011;5531;42.570;23.676;2022-12-18T02:49:44;12.18;;;10.23;;
10957;SDS011;5531;42.570;23.676;2022-12-18T02:52:24;10.55;;;9.40;;
10957;SDS011;5531;42.570;23.676;2022-12-18T02:55:01;11.68;;;9.48;;
10957;SDS011;5531;42.570;23.676;2022-12-18T02:57:44;9.80;;;8.80;;
10957;SDS011;5531;42.570;23.676;2022-12-18T03:00:18;10.35;;;9.00;;
10957;SDS011;5531;42.570;23.676;2022-12-18T03:02:51;11.57;;;8.30;;
10957;SDS011;5531;42.570;23.676;2022-12-18T03:05:28;10.00;;;8.32;;
10957;SDS011;5531;42.570;23.676;2022-12-18T03:08:03;9.00;;;8.05;;
10957;SDS011;5531;42.570;23.676;2022-12-18T03:10:37;9.93;;;7.07;;
10957;SDS011;5531;42.570;23.676;2022-12-18T03:13:13;9.85;;;7.63;;
10957;SDS011;5531;42.570;23.676;2022-12-18T03:15:49;7.70;;;6.90;;
10957;SDS011;5531;42.570;23.676;2022-12-18T03:18:21;8.88;;;7.28;;
10957;SDS011;5531;42.570;23.676;2022-12-18T03:20:54;10.45;;;9.38;;
10957;SDS011;5531;42.570;23.676;2022-12-18T03:23:26;9.40;;;8.32;;
10957;SDS011;5531;42.570;23.676;2022-12-18T03:26:01;10.38;;;8.40;;
10957;SDS011;5531;42.570;23.676;2022-12-18T03:28:53;9.85;;;7.63;;
10957;SDS011;5531;42.570;23.676;2022-12-18T03:31:26;10.30;;;8.52;;
10957;SDS011;5531;42.570;23.676;2022-12-18T03:33:59;9.63;;;8.63;;
10957;SDS011;5531;42.570;23.676;2022-12-18T03:36:32;9.30;;;7.65;;
10957;SDS011;5531;42.570;23.676;2022-12-18T03:39:01;8.10;;;7.10;;
10957;SDS011;5531;42.570;23.676;2022-12-18T03:41:31;8.88;;;7.35;;
10957;SDS011;5531;42.570;23.676;2022-12-18T03:44:08;10.13;;;8.60;;
10957;SDS011;5531;42.570;23.676;2022-12-18T03:46:45;8.23;;;7.13;;
10957;SDS011;5531;42.570;23.676;2022-12-18T03:49:20;9.35;;;7.55;;
10957;SDS011;5531;42.570;23.676;2022-12-18T03:51:55;8.18;;;7.13;;
10957;SDS011;5531;42.570;23.676;2022-12-18T03:54:31;10.52;;;9.00;;
10957;SDS011;5531;42.570;23.676;2022-12-18T03:57:04;11.32;;;10.02;;
10957;SDS011;5531;42.570;23.676;2022-12-18T03:59:41;9.82;;;8.80;;
10957;SDS011;5531;42.570;23.676;2022-12-18T04:02:13;10.25;;;8.63;;
10957;SDS011;5531;42.570;23.676;2022-12-18T04:04:44;10.70;;;9.40;;
10957;SDS011;5531;42.570;23.676;2022-12-18T04:07:16;10.88;;;9.63;;
10957;SDS011;5531;42.570;23.676;2022-12-18T04:09:46;10.05;;;8.88;;
10957;SDS011;5531;42.570;23.676;2022-12-18T04:12:16;11.73;;;10.18;;
10957;SDS011;5531;42.570;23.676;2022-12-18T04:14:48;10.02;;;8.38;;
10957;SDS011;5531;42.570;23.676;2022-12-18T04:17:17;11.57;;;8.43;;
10957;SDS011;5531;42.570;23.676;2022-12-18T04:19:46;10.07;;;8.15;;
10957;SDS011;5531;42.570;23.676;2022-12-18T04:22:15;10.90;;;8.43;;
10957;SDS011;5531;42.570;23.676;2022-12-18T04:24:44;9.43;;;8.23;;
10957;SDS011;5531;42.570;23.676;2022-12-18T04:27:13;12.02;;;8.80;;
10957;SDS011;5531;42.570;23.676;2022-12-18T04:29:42;9.82;;;7.82;;
10957;SDS011;5531;42.570;23.676;2022-12-18T04:32:14;9.45;;;8.20;;
10957;SDS011;5531;42.570;23.676;2022-12-18T04:34:43;10.48;;;8.68;;
10957;SDS011;5531;42.570;23.676;2022-12-18T04:37:12;9.88;;;8.00;;
10957;SDS011;5531;42.570;23.676;2022-12-18T04:39:41;12.43;;;9.27;;
10957;SDS011;5531;42.570;23.676;2022-12-18T04:42:10;11.80;;;9.48;;
10957;SDS011;5531;42.570;23.676;2022-12-18T04:44:39;13.88;;;12.25;;
10957;SDS011;5531;42.570;23.676;2022-12-18T04:47:08;10.18;;;8.77;;
10957;SDS011;5531;42.570;23.676;2022-12-18T04:49:39;10.52;;;8.48;;
10957;SDS011;5531;42.570;23.676;2022-12-18T04:52:08;9.43;;;8.35;;
10957;SDS011;5531;42.570;23.676;2022-12-18T04:54:37;10.55;;;9.23;;
10957;SDS011;5531;42.570;23.676;2022-12-18T04:57:06;12.48;;;9.95;;
10957;SDS011;5531;42.570;23.676;2022-12-18T04:59:35;10.70;;;8.48;;
10957;SDS011;5531;42.570;23.676;2022-12-18T05:02:04;16.85;;;14.90;;
10957;SDS011;5531;42.570;23.676;2022-12-18T05:04:33;13.13;;;11.73;;
10957;SDS011;5531;42.570;23.676;2022-12-18T05:07:05;14.40;;;12.93;;
10957;SDS011;5531;42.570;23.676;2022-12-18T05:09:34;12.55;;;11.10;;
10957;SDS011;5531;42.570;23.676;2022-12-18T05:12:03;11.88;;;10.13;;
10957;SDS011;5531;42.570;23.676;2022-12-18T05:14:32;11.32;;;9.88;;
10957;SDS011;5531;42.570;23.676;2022-12-18T05:17:01;11.00;;;8.93;;
10957;SDS011;5531;42.570;23.676;2022-12-18T05:19:30;12.63;;;9.15;;
10957;SDS011;5531;42.570;23.676;2022-12-18T05:21:59;11.75;;;10.20;;
10957;SDS011;5531;42.570;23.676;2022-12-18T05:24:31;11.57;;;9.95;;
10957;SDS011;5531;42.570;23.676;2022-12-18T05:27:00;18.40;;;16.60;;
10957;SDS011;5531;42.570;23.676;2022-12-18T05:29:29;12.98;;;10.95;;
10957;SDS011;5531;42.570;23.676;2022-12-18T05:31:58;14.00;;;12.10;;
10957;SDS011;5531;42.570;23.676;2022-12-18T05:34:27;12.43;;;11.07;;
10957;SDS011;5531;42.570;23.676;2022-12-18T05:36:56;12.90;;;10.18;;
10957;SDS011;5531;42.570;23.676;2022-12-18T05:39:25;11.90;;;9.75;;
10957;SDS011;5531;42.570;23.676;2022-12-18T05:41:59;13.73;;;10.15;;
10957;SDS011;5531;42.570;23.676;2022-12-18T05:44:28;14.82;;;10.18;;
10957;SDS011;5531;42.570;23.676;2022-12-18T05:46:57;15.30;;;11.55;;
10957;SDS011;5531;42.570;23.676;2022-12-18T05:49:26;11.82;;;10.23;;
10957;SDS011;5531;42.570;23.676;2022-12-18T05:51:55;13.07;;;10.57;;
10957;SDS011;5531;42.570;23.676;2022-12-18T05:54:26;14.00;;;10.77;;
10957;SDS011;5531;42.570;23.676;2022-12-18T05:56:56;14.43;;;10.98;;
10957;SDS011;5531;42.570;23.676;2022-12-18T05:59:28;13.68;;;11.48;;
10957;SDS011;5531;42.570;23.676;2022-12-18T06:01:57;13.80;;;10.73;;
10957;SDS011;5531;42.570;23.676;2022-12-18T06:04:26;15.20;;;11.60;;
10957;SDS011;5531;42.570;23.676;2022-12-18T06:06:58;16.65;;;12.15;;
10957;SDS011;5531;42.570;23.676;2022-12-18T06:09:28;14.05;;;12.00;;
10957;SDS011;5531;42.570;23.676;2022-12-18T06:11:57;17.65;;;12.27;;
10957;SDS011;5531;42.570;23.676;2022-12-18T06:14:29;17.20;;;12.85;;
10957;SDS011;5531;42.570;23.676;2022-12-18T06:16:58;15.38;;;12.38;;
10957;SDS011;5531;42.570;23.676;2022-12-18T06:19:27;15.25;;;12.05;;
10957;SDS011;5531;42.570;23.676;2022-12-18T06:21:56;15.77;;;12.00;;
10957;SDS011;5531;42.570;23.676;2022-12-18T06:24:26;16.52;;;12.63;;
10957;SDS011;5531;42.570;23.676;2022-12-18T06:26:55;15.60;;;11.98;;
10957;SDS011;5531;42.570;23.676;2022-12-18T06:29:24;20.40;;;18.13;;
10957;SDS011;5531;42.570;23.676;2022-12-18T06:31:56;15.38;;;12.80;;
10957;SDS011;5531;42.570;23.676;2022-12-18T06:34:25;17.13;;;13.43;;
10957;SDS011;5531;42.570;23.676;2022-12-18T06:36:54;18.27;;;14.05;;
10957;SDS011;5531;42.570;23.676;2022-12-18T06:39:23;18.23;;;13.60;;
10957;SDS011;5531;42.570;23.676;2022-12-18T06:41:52;19.65;;;14.90;;
10957;SDS011;5531;42.570;23.676;2022-12-18T06:44:22;19.33;;;14.23;;
10957;SDS011;5531;42.570;23.676;2022-12-18T06:46:51;19.02;;;13.40;;
10957;SDS011;5531;42.570;23.676;2022-12-18T06:49:22;17.98;;;13.45;;
10957;SDS011;5531;42.570;23.676;2022-12-18T06:51:51;19.00;;;14.50;;
10957;SDS011;5531;42.570;23.676;2022-12-18T06:54:20;19.95;;;14.30;;
10957;SDS011;5531;42.570;23.676;2022-12-18T06:56:49;18.83;;;13.75;;
10957;SDS011;5531;42.570;23.676;2022-12-18T06:59:28;18.08;;;14.80;;
10957;SDS011;5531;42.570;23.676;2022-12-18T07:01:56;19.90;;;16.83;;
10957;SDS011;5531;42.570;23.676;2022-12-18T07:04:30;19.33;;;16.73;;
10957;SDS011;5531;42.570;23.676;2022-12-18T07:07:12;18.77;;;16.77;;
10957;SDS011;5531;42.570;23.676;2022-12-18T07:09:41;18.48;;;13.77;;
10957;SDS011;5531;42.570;23.676;2022-12-18T07:12:10;18.08;;;16.13;;
10957;SDS011;5531;42.570;23.676;2022-12-18T07:14:39;16.52;;;13.35;;
10957;SDS011;5531;42.570;23.676;2022-12-18T07:17:08;16.85;;;14.02;;
10957;SDS011;5531;42.570;23.676;2022-12-18T07:19:39;18.15;;;13.20;;
10957;SDS011;5531;42.570;23.676;2022-12-18T07:22:08;16.13;;;12.18;;
10957;SDS011;5531;42.570;23.676;2022-12-18T07:24:38;16.42;;;12.95;;
10957;SDS011;5531;42.570;23.676;2022-12-18T07:27:07;15.93;;;12.02;;
10957;SDS011;5531;42.570;23.676;2022-12-18T07:29:36;14.82;;;11.35;;
10957;SDS011;5531;42.570;23.676;2022-12-18T07:32:05;17.00;;;12.32;;
10957;SDS011;5531;42.570;23.676;2022-12-18T07:34:34;15.73;;;12.43;;
10957;SDS011;5531;42.570;23.676;2022-12-18T07:37:06;16.38;;;12.30;;
10957;SDS011;5531;42.570;23.676;2022-12-18T07:39:35;16.95;;;12.63;;
10957;SDS011;5531;42.570;23.676;2022-12-18T07:42:04;16.10;;;12.50;;
10957;SDS011;5531;42.570;23.676;2022-12-18T07:44:45;16.80;;;12.75;;
10957;SDS011;5531;42.570;23.676;2022-12-18T07:47:14;17.02;;;12.75;;
10957;SDS011;5531;42.570;23.676;2022-12-18T07:49:43;17.75;;;13.50;;
10957;SDS011;5531;42.570;23.676;2022-12-18T07:52:15;20.10;;;15.95;;
10957;SDS011;5531;42.570;23.676;2022-12-18T07:54:44;16.25;;;14.02;;
10957;SDS011;5531;42.570;23.676;2022-12-18T07:57:15;16.17;;;13.25;;
10957;SDS011;5531;42.570;23.676;2022-12-18T07:59:44;16.42;;;11.82;;
10957;SDS011;5531;42.570;23.676;2022-12-18T08:02:13;17.60;;;12.90;;
10957;SDS011;5531;42.570;23.676;2022-12-18T08:04:42;16.92;;;13.45;;
10957;SDS011;5531;42.570;23.676;2022-12-18T08:07:11;18.17;;;12.88;;
10957;SDS011;5531;42.570;23.676;2022-12-18T08:09:43;17.60;;;13.48;;
10957;SDS011;5531;42.570;23.676;2022-12-18T08:12:12;15.60;;;11.85;;
10957;SDS011;5531;42.570;23.676;2022-12-18T08:14:41;14.38;;;11.85;;
10957;SDS011;5531;42.570;23.676;2022-12-18T08:17:10;17.17;;;12.52;;
10957;SDS011;5531;42.570;23.676;2022-12-18T08:19:39;15.88;;;12.32;;
10957;SDS011;5531;42.570;23.676;2022-12-18T08:22:08;16.25;;;12.25;;
10957;SDS011;5531;42.570;23.676;2022-12-18T08:24:39;16.17;;;12.38;;
10957;SDS011;5531;42.570;23.676;2022-12-18T08:27:08;16.75;;;12.57;;
10957;SDS011;5531;42.570;23.676;2022-12-18T08:29:37;16.88;;;13.27;;
10957;SDS011;5531;42.570;23.676;2022-12-18T08:32:07;17.83;;;13.18;;
10957;SDS011;5531;42.570;23.676;2022-12-18T08:34:36;17.58;;;13.70;;
10957;SDS011;5531;42.570;23.676;2022-12-18T08:37:05;19.75;;;13.07;;
10957;SDS011;5531;42.570;23.676;2022-12-18T08:39:34;16.67;;;12.15;;
10957;SDS011;5531;42.570;23.676;2022-12-18T08:42:05;16.88;;;12.73;;
10957;SDS011;5531;42.570;23.676;2022-12-18T08:44:47;17.55;;;12.90;;
10957;SDS011;5531;42.570;23.676;2022-12-18T08:47:16;18.25;;;13.48;;
10957;SDS011;5531;42.570;23.676;2022-12-18T08:49:45;17.67;;;13.95;;
10957;SDS011;5531;42.570;23.676;2022-12-18T08:52:14;17.40;;;13.43;;
10957;SDS011;5531;42.570;23.676;2022-12-18T08:54:43;18.42;;;13.13;;
10957;SDS011;5531;42.570;23.676;2022-12-18T08:57:14;19.27;;;14.02;;
10957;SDS011;5531;42.570;23.676;2022-12-18T08:59:44;16.75;;;13.40;;
10957;SDS011;5531;42.570;23.676;2022-12-18T09:02:13;18.65;;;14.05;;
10957;SDS011;5531;42.570;23.676;2022-12-18T09:04:42;17.73;;;13.45;;
10957;SDS011;5531;42.570;23.676;2022-12-18T09:07:12;17.05;;;13.25;;
10957;SDS011;5531;42.570;23.676;2022-12-18T09:09:41;18.30;;;13.20;;
10957;SDS011;5531;42.570;23.676;2022-12-18T09:12:14;19.48;;;13.98;;
10957;SDS011;5531;42.570;23.676;2022-12-18T09:14:43;18.13;;;13.25;;
10957;SDS011;5531;42.570;23.676;2022-12-18T09:17:13;17.25;;;13.23;;
10957;SDS011;5531;42.570;23.676;2022-12-18T09:19:42;18.23;;;14.20;;
10957;SDS011;5531;42.570;23.676;2022-12-18T09:22:11;17.98;;;13.60;;
10957;SDS011;5531;42.570;23.676;2022-12-18T09:24:40;17.67;;;13.65;;
10957;SDS011;5531;42.570;23.676;2022-12-18T09:27:09;19.23;;;13.35;;
10957;SDS011;5531;42.570;23.676;2022-12-18T09:29:41;19.48;;;14.77;;
10957;SDS011;5531;42.570;23.676;2022-12-18T09:32:10;18.60;;;14.07;;
10957;SDS011;5531;42.570;23.676;2022-12-18T09:34:39;20.83;;;14.65;;
10957;SDS011;5531;42.570;23.676;2022-12-18T09:37:08;20.25;;;14.20;;
10957;SDS011;5531;42.570;23.676;2022-12-18T09:39:37;19.52;;;14.40;;
10957;SDS011;5531;42.570;23.676;2022-12-18T09:42:09;22.40;;;15.15;;
10957;SDS011;5531;42.570;23.676;2022-12-18T09:44:49;19.02;;;14.18;;
10957;SDS011;5531;42.570;23.676;2022-12-18T09:47:21;20.38;;;15.07;;
10957;SDS011;5531;42.570;23.676;2022-12-18T09:49:55;17.92;;;12.07;;
10957;SDS011;5531;42.570;23.676;2022-12-18T09:52:27;19.80;;;15.13;;
10957;SDS011;5531;42.570;23.676;2022-12-18T09:55:04;20.40;;;14.20;;
10957;SDS011;5531;42.570;23.676;2022-12-18T09:57:40;18.65;;;14.27;;
10957;SDS011;5531;42.570;23.676;2022-12-18T10:00:19;20.95;;;15.48;;
10957;SDS011;5531;42.570;23.676;2022-12-18T10:02:50;23.38;;;16.15;;
10957;SDS011;5531;42.570;23.676;2022-12-18T10:05:24;21.48;;;15.88;;
10957;SDS011;5531;42.570;23.676;2022-12-18T10:08:04;23.83;;;16.10;;
10957;SDS011;5531;42.570;23.676;2022-12-18T10:10:40;22.77;;;15.88;;
10957;SDS011;5531;42.570;23.676;2022-12-18T10:13:16;22.95;;;14.63;;
10957;SDS011;5531;42.570;23.676;2022-12-18T10:16:03;23.38;;;16.95;;
10957;SDS011;5531;42.570;23.676;2022-12-18T10:18:42;21.40;;;14.80;;
10957;SDS011;5531;42.570;23.676;2022-12-18T10:21:28;22.63;;;15.82;;
10957;SDS011;5531;42.570;23.676;2022-12-18T10:24:03;21.88;;;15.25;;
10957;SDS011;5531;42.570;23.676;2022-12-18T10:26:41;20.05;;;14.57;;
10957;SDS011;5531;42.570;23.676;2022-12-18T10:29:12;18.27;;;14.23;;
10957;SDS011;5531;42.570;23.676;2022-12-18T10:31:45;19.13;;;14.10;;
10957;SDS011;5531;42.570;23.676;2022-12-18T10:34:15;21.35;;;14.77;;
10957;SDS011;5531;42.570;23.676;2022-12-18T10:36:44;20.45;;;14.75;;
10957;SDS011;5531;42.570;23.676;2022-12-18T10:39:16;19.15;;;14.07;;
10957;SDS011;5531;42.570;23.676;2022-12-18T10:41:47;19.50;;;14.43;;
10957;SDS011;5531;42.570;23.676;2022-12-18T10:44:18;18.33;;;14.15;;
10957;SDS011;5531;42.570;23.676;2022-12-18T10:46:53;20.65;;;14.00;;
10957;SDS011;5531;42.570;23.676;2022-12-18T10:49:25;18.17;;;13.93;;
10957;SDS011;5531;42.570;23.676;2022-12-18T10:52:16;20.20;;;14.85;;
10957;SDS011;5531;42.570;23.676;2022-12-18T10:54:47;19.50;;;14.18;;
10957;SDS011;5531;42.570;23.676;2022-12-18T10:57:29;20.85;;;15.32;;
10957;SDS011;5531;42.570;23.676;2022-12-18T11:00:18;19.85;;;14.02;;
10957;SDS011;5531;42.570;23.676;2022-12-18T11:02:53;20.65;;;14.93;;
10957;SDS011;5531;42.570;23.676;2022-12-18T11:05:24;19.15;;;14.07;;
10957;SDS011;5531;42.570;23.676;2022-12-18T11:07:56;19.70;;;14.05;;
10957;SDS011;5531;42.570;23.676;2022-12-18T11:10:28;20.27;;;14.75;;
10957;SDS011;5531;42.570;23.676;2022-12-18T11:13:12;20.70;;;14.55;;
10957;SDS011;5531;42.570;23.676;2022-12-18T11:15:45;17.73;;;13.13;;
10957;SDS011;5531;42.570;23.676;2022-12-18T11:18:19;20.65;;;13.68;;
10957;SDS011;5531;42.570;23.676;2022-12-18T11:20:53;19.02;;;13.73;;
10957;SDS011;5531;42.570;23.676;2022-12-18T11:23:24;17.80;;;13.55;;
10957;SDS011;5531;42.570;23.676;2022-12-18T11:25:55;19.23;;;13.75;;
10957;SDS011;5531;42.570;23.676;2022-12-18T11:28:28;21.67;;;14.57;;
10957;SDS011;5531;42.570;23.676;2022-12-18T11:34:01;19.30;;;14.20;;
10957;SDS011;5531;42.570;23.676;2022-12-18T11:36:34;19.30;;;14.25;;
10957;SDS011;5531;42.570;23.676;2022-12-18T11:39:10;18.60;;;13.93;;
10957;SDS011;5531;42.570;23.676;2022-12-18T11:41:47;21.70;;;14.55;;
10957;SDS011;5531;42.570;23.676;2022-12-18T11:44:35;18.98;;;14.32;;
10957;SDS011;5531;42.570;23.676;2022-12-18T11:47:11;21.17;;;14.93;;
10957;SDS011;5531;42.570;23.676;2022-12-18T11:49:53;21.38;;;14.93;;
10957;SDS011;5531;42.570;23.676;2022-12-18T11:52:28;19.10;;;13.82;;
10957;SDS011;5531;42.570;23.676;2022-12-18T11:55:05;17.95;;;13.20;;
10957;SDS011;5531;42.570;23.676;2022-12-18T11:57:42;21.05;;;15.15;;
10957;SDS011;5531;42.570;23.676;2022-12-18T12:00:20;19.92;;;14.95;;
10957;SDS011;5531;42.570;23.676;2022-12-18T12:03:00;20.83;;;15.55;;
10957;SDS011;5531;42.570;23.676;2022-12-18T12:05:59;20.95;;;14.55;;
10957;SDS011;5531;42.570;23.676;2022-12-18T12:08:44;21.52;;;14.95;;
10957;SDS011;5531;42.570;23.676;2022-12-18T12:11:27;21.77;;;15.15;;
10957;SDS011;5531;42.570;23.676;2022-12-18T12:14:17;22.35;;;15.50;;
10957;SDS011;5531;42.570;23.676;2022-12-18T12:16:59;19.40;;;14.00;;
10957;SDS011;5531;42.570;23.676;2022-12-18T12:19:36;19.38;;;14.73;;
10957;SDS011;5531;42.570;23.676;2022-12-18T12:22:17;18.65;;;14.35;;
10957;SDS011;5531;42.570;23.676;2022-12-18T12:24:58;19.10;;;13.40;;
10957;SDS011;5531;42.570;23.676;2022-12-18T12:27:44;17.92;;;12.55;;
10957;SDS011;5531;42.570;23.676;2022-12-18T12:30:24;16.42;;;11.90;;
10957;SDS011;5531;42.570;23.676;2022-12-18T12:33:02;17.52;;;12.68;;
10957;SDS011;5531;42.570;23.676;2022-12-18T12:35:46;17.90;;;12.80;;
10957;SDS011;5531;42.570;23.676;2022-12-18T12:38:23;16.83;;;12.18;;
10957;SDS011;5531;42.570;23.676;2022-12-18T12:40:57;17.50;;;12.93;;
10957;SDS011;5531;42.570;23.676;2022-12-18T12:43:34;17.50;;;13.63;;
10957;SDS011;5531;42.570;23.676;2022-12-18T12:46:05;17.90;;;13.82;;
10957;SDS011;5531;42.570;23.676;2022-12-18T12:48:36;20.77;;;13.98;;
10957;SDS011;5531;42.570;23.676;2022-12-18T12:51:11;19.73;;;14.50;;
10957;SDS011;5531;42.570;23.676;2022-12-18T12:53:47;18.75;;;13.30;;
10957;SDS011;5531;42.570;23.676;2022-12-18T12:56:17;16.40;;;12.50;;
10957;SDS011;5531;42.570;23.676;2022-12-18T12:58:56;17.63;;;13.15;;
10957;SDS011;5531;42.570;23.676;2022-12-18T13:01:34;17.95;;;12.75;;
10957;SDS011;5531;42.570;23.676;2022-12-18T13:04:12;17.75;;;12.40;;
10957;SDS011;5531;42.570;23.676;2022-12-18T13:06:49;16.95;;;12.30;;
10957;SDS011;5531;42.570;23.676;2022-12-18T13:09:27;17.73;;;13.65;;
10957;SDS011;5531;42.570;23.676;2022-12-18T13:12:01;17.08;;;12.95;;
10957;SDS011;5531;42.570;23.676;2022-12-18T13:14:43;18.00;;;13.00;;
10957;SDS011;5531;42.570;23.676;2022-12-18T13:20:04;17.27;;;12.63;;
10957;SDS011;5531;42.570;23.676;2022-12-18T13:22:39;18.58;;;13.48;;
10957;SDS011;5531;42.570;23.676;2022-12-18T13:25:33;20.00;;;12.95;;
10957;SDS011;5531;42.570;23.676;2022-12-18T13:28:04;16.85;;;12.85;;
10957;SDS011;5531;42.570;23.676;2022-12-18T13:30:47;17.95;;;12.55;;
10957;SDS011;5531;42.570;23.676;2022-12-18T13:33:36;18.92;;;13.40;;
10957;SDS011;5531;42.570;23.676;2022-12-18T13:36:14;18.38;;;13.32;;
10957;SDS011;5531;42.570;23.676;2022-12-18T13:39:15;17.52;;;12.20;;
10957;SDS011;5531;42.570;23.676;2022-12-18T13:42:30;18.92;;;13.23;;
10957;SDS011;5531;42.570;23.676;2022-12-18T13:48:21;18.38;;;13.88;;
10957;SDS011;5531;42.570;23.676;2022-12-18T13:50:53;18.98;;;13.80;;
10957;SDS011;5531;42.570;23.676;2022-12-18T13:53:26;18.00;;;13.05;;
10957;SDS011;5531;42.570;23.676;2022-12-18T13:55:59;18.50;;;13.30;;
10957;SDS011;5531;42.570;23.676;2022-12-18T13:58:31;19.02;;;14.43;;
10957;SDS011;5531;42.570;23.676;2022-12-18T14:01:00;18.48;;;14.02;;
10957;SDS011;5531;42.570;23.676;2022-12-18T14:03:30;21.80;;;14.00;;
10957;SDS011;5531;42.570;23.676;2022-12-18T14:06:00;21.00;;;14.32;;
10957;SDS011;5531;42.570;23.676;2022-12-18T14:08:33;19.35;;;14.07;;
10957;SDS011;5531;42.570;23.676;2022-12-18T14:11:07;19.15;;;13.30;;
10957;SDS011;5531;42.570;23.676;2022-12-18T14:13:53;21.23;;;13.88;;
10957;SDS011;5531;42.570;23.676;2022-12-18T14:16:22;18.98;;;14.40;;
10957;SDS011;5531;42.570;23.676;2022-12-18T14:18:52;21.42;;;16.17;;
10957;SDS011;5531;42.570;23.676;2022-12-18T14:21:24;20.73;;;15.30;;
10957;SDS011;5531;42.570;23.676;2022-12-18T14:24:13;21.00;;;14.75;;
10957;SDS011;5531;42.570;23.676;2022-12-18T14:26:44;20.77;;;15.48;;
10957;SDS011;5531;42.570;23.676;2022-12-18T14:29:26;21.52;;;15.15;;
10957;SDS011;5531;42.570;23.676;2022-12-18T14:32:06;20.05;;;14.48;;
10957;SDS011;5531;42.570;23.676;2022-12-18T14:34:39;21.23;;;16.10;;
10957;SDS011;5531;42.570;23.676;2022-12-18T14:37:09;21.95;;;15.18;;
10957;SDS011;5531;42.570;23.676;2022-12-18T14:39:39;18.30;;;14.23;;
10957;SDS011;5531;42.570;23.676;2022-12-18T14:42:10;18.63;;;14.30;;
10957;SDS011;5531;42.570;23.676;2022-12-18T14:44:42;20.35;;;13.77;;
10957;SDS011;5531;42.570;23.676;2022-12-18T14:47:13;20.17;;;15.02;;
10957;SDS011;5531;42.570;23.676;2022-12-18T14:49:43;20.40;;;14.40;;
10957;SDS011;5531;42.570;23.676;2022-12-18T14:52:17;23.05;;;15.55;;
10957;SDS011;5531;42.570;23.676;2022-12-18T14:54:54;20.90;;;15.27;;
10957;SDS011;5531;42.570;23.676;2022-12-18T14:57:24;22.13;;;15.27;;
10957;SDS011;5531;42.570;23.676;2022-12-18T15:00:06;21.45;;;14.55;;
10957;SDS011;5531;42.570;23.676;2022-12-18T15:02:43;20.75;;;15.00;;
10957;SDS011;5531;42.570;23.676;2022-12-18T15:05:17;21.88;;;15.85;;
10957;SDS011;5531;42.570;23.676;2022-12-18T15:07:48;22.17;;;15.80;;